Terminal Aerodrome Forecast
Issued by NWS

Home | Current Version | Previous Version | Text Only | Print | Product List | Glossary On
Versions: 1 2 3 4 5 6 7 8 9 10 11 12 13 14 15
000
FTUS41 KLWX 292340
TAFMTN
TAF
KMTN 292340Z 3000/3024 16005KT P6SM BKN080
     FM300300 18005KT P6SM SCT080
     FM301400 18006KT P6SM BKN090
     FM301800 17010KT P6SM BKN050
     FM302100 18011KT P6SM SCT050
      AMD NOT SKED 3002/3012=

USA.gov is the U.S. government's official web portal to all federal, state and local government web resources and services.